Time;durP1;ratioP1;P1;durP2;ratioP2;P2;SDS_P1;SDS_P2;PMS_P1;PMS_P2;Temp;Humidity;BMP_temperature;BMP_pressure;BME280_temperature;BME280_humidity;BME280_pressure;Samples;Min_cycle;Max_cycle;Signal;HPM_P1;HPM_P2
2022/10/30 15:13:41;;;;;;;13.30;10.40;;;;;;;16.45;82.10;100481.59;111687;1300;960484;-74
2022/10/30 15:16:51;;;;;;;14.80;10.50;;;;;;;16.36;82.18;100478.36;125436;1318;97363;-79
2022/10/30 15:19:59;;;;;;;15.30;10.10;;;;;;;16.28;82.27;100473.97;125280;1312;96657;-78
2022/10/30 15:23:08;;;;;;;17.20;11.10;;;;;;;16.20;82.42;100473.56;125265;1312;97371;-77
2022/10/30 15:26:22;;;;;;;17.30;11.50;;;;;;;16.11;82.47;100479.63;125274;1310;97323;-77
2022/10/30 15:29:31;;;;;;;15.40;11.70;;;;;;;16.02;82.64;100483.39;125087;1313;97359;-77
2022/10/30 15:32:41;;;;;;;21.20;14.00;;;;;;;15.92;82.71;100477.90;125174;1312;97330;-75
2022/10/30 15:35:49;;;;;;;15.10;11.50;;;;;;;15.82;82.76;100473.02;125099;1313;97835;-78
2022/10/30 15:39:13;;;;;;;18.00;11.40;;;;;;;15.74;82.86;100468.75;125144;1319;97472;-75
2022/10/30 15:42:19;;;;;;;13.70;10.50;;;;;;;15.67;82.78;100471.30;125150;1307;97452;-77
2022/10/30 15:45:28;;;;;;;17.00;11.40;;;;;;;15.59;82.82;100468.07;125028;1313;96666;-77
2022/10/30 15:48:35;;;;;;;14.30;10.40;;;;;;;15.51;82.89;100471.53;125210;1313;97363;-77
2022/10/30 15:51:46;;;;;;;14.40;10.60;;;;;;;15.43;82.84;100476.13;125237;1319;96686;-78
2022/10/30 15:54:55;;;;;;;17.30;10.10;;;;;;;15.31;82.95;100476.74;125116;1312;97333;-77
2022/10/30 15:58:04;;;;;;;13.40;9.50;;;;;;;15.22;83.12;100476.24;124902;1305;97444;-77
2022/10/30 16:01:25;;;;;;;15.90;9.90;;;;;;;15.16;83.07;100480.45;124907;1319;96890;-77
2022/10/30 16:04:37;;;;;;;19.70;10.90;;;;;;;15.11;83.28;100482.12;124968;1313;96691;-77
2022/10/30 16:07:46;;;;;;;15.90;10.70;;;;;;;15.07;83.25;100480.42;124921;1304;96701;-78
2022/10/30 16:10:55;;;;;;;16.00;11.10;;;;;;;15.00;83.18;100474.50;125004;1304;96711;-78
2022/10/30 16:14:08;;;;;;;12.70;10.30;;;;;;;14.91;83.27;100476.76;125170;1302;97714;-78
2022/10/30 16:17:14;;;;;;;15.30;10.40;;;;;;;14.81;83.29;100477.35;124916;1305;96692;-78
2022/10/30 16:20:20;;;;;;;15.10;10.40;;;;;;;14.71;83.14;100473.22;124990;1313;97794;-78
2022/10/30 16:23:25;;;;;;;16.50;11.60;;;;;;;14.64;83.34;100483.35;125150;1312;97740;-78
2022/10/30 16:26:33;;;;;;;16.40;11.70;;;;;;;14.58;83.17;100480.35;125147;1290;97711;-78
2022/10/30 16:29:40;;;;;;;15.40;11.50;;;;;;;14.51;83.43;100480.27;125152;1306;96782;-79
2022/10/30 16:32:53;;;;;;;14.50;11.40;;;;;;;14.46;83.33;100481.40;124954;1299;96659;-78
2022/10/30 16:35:59;;;;;;;15.10;11.10;;;;;;;14.38;83.24;100481.04;124911;1312;96666;-78
2022/10/30 16:39:05;;;;;;;11.90;8.70;;;;;;;14.29;83.39;100481.77;124841;1313;97867;-78
2022/10/30 16:42:21;;;;;;;15.90;10.20;;;;;;;14.20;83.40;100479.67;124902;1306;97719;-78
2022/10/30 16:45:48;;;;;;;14.10;9.70;;;;;;;14.12;83.36;100479.33;124872;1306;96704;-78
2022/10/30 16:48:58;;;;;;;14.80;10.00;;;;;;;14.07;83.39;100483.41;124876;1312;96689;-78
2022/10/30 16:52:07;;;;;;;15.60;10.40;;;;;;;14.03;83.20;100487.61;124899;1312;97348;-78
2022/10/30 16:55:19;;;;;;;16.30;11.50;;;;;;;13.99;83.33;100486.69;124851;1319;97274;-78
2022/10/30 16:58:29;;;;;;;17.40;11.30;;;;;;;13.90;83.05;100488.38;124860;1313;96799;-79
2022/10/30 17:01:35;;;;;;;14.80;10.30;;;;;;;13.82;83.26;100490.22;124877;1305;97138;-79
2022/10/30 17:04:45;;;;;;;16.20;9.90;;;;;;;13.75;83.37;100485.83;124897;1299;97799;-78
2022/10/30 17:07:57;;;;;;;16.10;10.30;;;;;;;13.69;83.17;100491.33;124867;1313;96900;-78
2022/10/30 17:11:05;;;;;;;16.20;12.00;;;;;;;13.65;83.30;100492.29;124858;1312;97450;-79
2022/10/30 17:14:21;;;;;;;16.70;12.50;;;;;;;13.61;83.08;100495.25;124828;1306;96785;-78
2022/10/30 17:17:33;;;;;;;21.10;12.60;;;;;;;13.55;83.31;100495.52;124919;1305;96719;-79
2022/10/30 17:20:38;;;;;;;14.40;11.30;;;;;;;13.50;83.21;100493.99;124944;1305;97848;-78
2022/10/30 17:23:49;;;;;;;16.10;11.80;;;;;;;13.43;82.90;100496.47;124950;1313;97024;-77
2022/10/30 17:26:58;;;;;;;19.70;11.70;;;;;;;13.34;83.11;100491.44;124900;1320;97822;-78
2022/10/30 17:30:24;;;;;;;19.00;11.40;;;;;;;13.25;82.90;100488.80;125127;1305;97489;-77
2022/10/30 17:33:37;;;;;;;18.10;12.90;;;;;;;13.16;83.05;100486.02;125167;1310;97755;-78
2022/10/30 17:36:43;;;;;;;18.50;12.20;;;;;;;13.11;83.07;100490.79;125125;1320;97326;-76
2022/10/30 17:39:48;;;;;;;17.50;12.90;;;;;;;13.10;83.04;100491.49;125033;1312;96676;-77
2022/10/30 17:42:54;;;;;;;16.80;13.00;;;;;;;13.07;82.91;100492.83;125167;1304;96694;-77
2022/10/30 17:45:59;;;;;;;17.40;12.20;;;;;;;13.03;82.82;100495.02;125174;1313;97711;-77
2022/10/30 17:49:08;;;;;;;20.50;15.40;;;;;;;12.95;82.83;100491.78;125100;1307;97835;-77
2022/10/30 17:52:16;;;;;;;20.60;13.80;;;;;;;12.86;82.94;100497.91;124976;1313;97848;-77
2022/10/30 17:55:29;;;;;;;17.10;12.40;;;;;;;12.79;82.70;100496.68;124945;1313;97817;-77
2022/10/30 17:58:34;;;;;;;23.80;15.20;;;;;;;12.73;82.75;100495.72;124950;1313;96751;-77
2022/10/30 18:01:40;;;;;;;20.60;15.00;;;;;;;12.69;82.73;100494.27;124886;1313;96770;-77
2022/10/30 18:04:46;;;;;;;21.50;14.90;;;;;;;12.67;82.68;100493.80;124832;1313;96741;-77
2022/10/30 18:07:51;;;;;;;21.10;14.70;;;;;;;12.63;82.61;100497.50;124903;1313;96671;-77
2022/10/30 18:10:57;;;;;;;25.80;15.10;;;;;;;12.60;82.52;100493.89;125180;1313;96663;-77
2022/10/30 18:14:03;;;;;;;38.70;24.90;;;;;;;12.55;82.64;100493.84;125166;1307;96671;-77
2022/10/30 18:17:08;;;;;;;31.60;18.60;;;;;;;12.50;82.75;100490.16;125155;1313;97834;-78
2022/10/30 18:20:14;;;;;;;21.90;14.40;;;;;;;12.47;82.74;100492.36;124950;1306;97435;-78
2022/10/30 18:23:22;;;;;;;28.70;17.10;;;;;;;12.44;82.74;100494.48;125327;1297;96814;-77
2022/10/30 18:26:29;;;;;;;25.10;17.60;;;;;;;12.39;82.56;100497.48;125404;1297;97813;-78
2022/10/30 18:29:34;;;;;;;30.10;18.80;;;;;;;12.35;82.45;100501.59;125471;1296;96770;-77
2022/10/30 18:32:39;;;;;;;33.00;18.70;;;;;;;12.30;82.36;100501.90;125148;1302;97426;-79
2022/10/30 18:35:46;;;;;;;33.40;18.20;;;;;;;12.27;82.29;100504.23;125285;1297;97756;-78
2022/10/30 18:38:53;;;;;;;29.90;19.90;;;;;;;12.21;82.29;100504.88;125243;1292;96682;-78
2022/10/30 18:42:00;;;;;;;37.30;21.50;;;;;;;12.13;82.24;100505.83;125231;1313;97343;-80
2022/10/30 18:45:16;;;;;;;27.00;16.40;;;;;;;12.05;82.23;100499.13;125065;1296;96759;-74
2022/10/30 18:48:22;;;;;;;27.20;15.70;;;;;;;11.97;82.13;100497.04;125002;1306;97353;-76
2022/10/30 18:51:28;;;;;;;23.50;16.00;;;;;;;11.96;82.23;100496.33;124962;1300;96897;-76
2022/10/30 18:54:34;;;;;;;29.80;17.10;;;;;;;11.95;82.13;100497.66;125019;1296;97843;-76
2022/10/30 18:57:39;;;;;;;22.20;15.20;;;;;;;11.95;82.11;100498.76;125006;1296;97823;-77
2022/10/30 19:00:45;;;;;;;26.70;16.50;;;;;;;11.94;82.08;100493.30;124998;1298;96714;-78
2022/10/30 19:03:50;;;;;;;28.00;17.40;;;;;;;11.93;82.08;100493.10;124931;1309;97849;-76
2022/10/30 19:06:56;;;;;;;25.90;17.30;;;;;;;11.90;82.03;100492.47;125216;1306;96750;-76
2022/10/30 19:10:01;;;;;;;35.40;21.70;;;;;;;11.85;82.02;100494.92;125134;1305;96667;-77
2022/10/30 19:13:14;;;;;;;32.90;18.90;;;;;;;11.78;82.05;100494.13;124931;1297;97549;-76
2022/10/30 19:16:23;;;;;;;31.00;17.30;;;;;;;11.73;81.95;100493.95;124812;1298;96663;-76
2022/10/30 19:19:28;;;;;;;38.30;23.70;;;;;;;11.71;82.06;100499.48;124979;1298;96698;-75
2022/10/30 19:22:34;;;;;;;35.60;20.80;;;;;;;11.69;82.04;100498.50;125083;1306;97847;-76
2022/10/30 19:25:42;;;;;;;43.50;24.50;;;;;;;11.68;81.99;100494.34;124996;1313;96646;-76
2022/10/30 19:28:48;;;;;;;42.80;24.80;;;;;;;11.67;82.01;100491.75;124972;1306;96643;-76
2022/10/30 19:31:53;;;;;;;50.00;27.70;;;;;;;11.66;82.02;100490.72;124970;1296;96664;-76
2022/10/30 19:34:59;;;;;;;51.10;28.70;;;;;;;11.62;81.93;100498.42;124886;1304;97479;-76
2022/10/30 19:38:06;;;;;;;51.60;28.30;;;;;;;11.56;81.94;100493.91;124902;1290;96781;-76
2022/10/30 19:41:12;;;;;;;53.30;26.40;;;;;;;11.52;81.76;100495.41;125190;1296;96707;-76
2022/10/30 19:44:17;;;;;;;53.30;26.60;;;;;;;11.48;82.04;100491.16;125228;1296;97721;-76
2022/10/30 19:47:22;;;;;;;58.10;29.20;;;;;;;11.46;81.85;100494.92;125245;1289;96663;-75
2022/10/30 19:50:30;;;;;;;59.30;32.50;;;;;;;11.48;81.92;100492.79;125221;1299;97466;-75
2022/10/30 19:53:36;;;;;;;67.40;35.30;;;;;;;11.48;81.96;100488.95;125279;1292;97820;-74
2022/10/30 19:56:42;;;;;;;73.50;39.70;;;;;;;11.48;81.94;100487.79;125229;1297;96659;-75
2022/10/30 19:59:48;;;;;;;67.50;37.70;;;;;;;11.45;81.84;100488.77;124927;1304;96721;-75
2022/10/30 20:02:55;;;;;;;70.50;39.10;;;;;;;11.39;81.87;100488.04;124918;1320;97445;-75
2022/10/30 20:06:01;;;;;;;77.90;41.70;;;;;;;11.34;81.92;100490.52;125039;1292;96709;-76
2022/10/30 20:09:09;;;;;;;60.80;32.50;;;;;;;11.29;82.13;100494.40;124923;1296;96676;-76
2022/10/30 20:12:14;;;;;;;55.20;30.70;;;;;;;11.26;82.07;100498.30;124997;1289;96654;-76
2022/10/30 20:15:22;;;;;;;58.20;33.40;;;;;;;11.23;81.96;100498.38;124940;1297;97311;-75
2022/10/30 20:18:30;;;;;;;89.40;52.90;;;;;;;11.23;82.02;100502.11;125022;1297;97277;-75
2022/10/30 20:21:36;;;;;;;62.40;35.20;;;;;;;11.23;81.82;100503.58;124986;1307;96718;-75
2022/10/30 20:24:42;;;;;;;62.20;34.60;;;;;;;11.22;81.83;100506.40;125041;1304;96661;-75
2022/10/30 20:27:48;;;;;;;64.70;37.60;;;;;;;11.21;82.02;100508.59;124948;1304;96816;-75
2022/10/30 20:30:54;;;;;;;68.60;37.30;;;;;;;11.20;81.81;100506.38;125025;1297;96671;-76
2022/10/30 20:34:00;;;;;;;66.90;38.40;;;;;;;11.18;81.76;100503.35;125013;1302;96754;-75
2022/10/30 20:37:05;;;;;;;64.40;35.70;;;;;;;11.13;82.09;100501.54;124962;1313;97772;-77
2022/10/30 20:40:16;;;;;;;66.80;35.00;;;;;;;11.09;82.06;100500.66;124962;1296;97431;-78
2022/10/30 20:43:27;;;;;;;74.50;41.40;;;;;;;11.06;81.98;100500.44;125001;1299;97478;-75
2022/10/30 20:46:32;;;;;;;73.80;43.20;;;;;;;11.07;82.14;100501.27;124989;1306;96674;-74
2022/10/30 20:49:37;;;;;;;78.50;44.20;;;;;;;11.08;82.10;100500.95;124887;1297;96694;-75
2022/10/30 20:52:43;;;;;;;75.10;43.20;;;;;;;11.05;81.89;100499.98;124945;1289;96691;-75
2022/10/30 20:55:49;;;;;;;71.40;42.50;;;;;;;11.03;82.01;100500.90;124933;1302;96677;-75
2022/10/30 20:58:54;;;;;;;71.20;42.40;;;;;;;11.00;81.90;100500.50;124882;1292;97460;-75
2022/10/30 21:01:59;;;;;;;64.60;39.40;;;;;;;10.95;82.10;100503.39;124964;1308;96708;-76
2022/10/30 21:05:05;;;;;;;65.30;36.30;;;;;;;10.92;81.87;100504.30;125052;1313;97822;-75
2022/10/30 21:08:11;;;;;;;63.40;34.70;;;;;;;10.88;81.74;100508.09;125011;1305;96689;-75
2022/10/30 21:11:16;;;;;;;62.90;37.20;;;;;;;10.85;81.95;100508.56;125029;1289;97933;-76
2022/10/30 21:14:21;;;;;;;65.20;40.70;;;;;;;10.85;81.97;100513.54;124919;1305;97850;-75
2022/10/30 21:17:27;;;;;;;75.70;47.10;;;;;;;10.87;81.94;100513.36;124939;1296;96694;-75
2022/10/30 21:20:32;;;;;;;92.30;50.70;;;;;;;10.90;82.13;100512.08;125025;1296;97435;-75
2022/10/30 21:23:38;;;;;;;79.90;48.10;;;;;;;10.88;81.74;100505.16;125160;1298;97797;-75
2022/10/30 21:26:43;;;;;;;81.70;49.70;;;;;;;10.83;81.73;100506.55;124945;1299;96691;-76
2022/10/30 21:29:49;;;;;;;76.40;47.30;;;;;;;10.76;81.61;100505.13;124859;1312;97262;-76
2022/10/30 21:32:54;;;;;;;73.60;43.20;;;;;;;10.68;81.89;100499.83;124907;1297;96779;-76
2022/10/30 21:36:05;;;;;;;62.50;34.60;;;;;;;10.64;81.87;100498.80;124903;1305;97553;-76
2022/10/30 21:39:10;;;;;;;70.40;41.60;;;;;;;10.61;81.77;100493.01;124923;1304;97378;-75
2022/10/30 21:42:16;;;;;;;79.20;46.20;;;;;;;10.60;82.00;100491.66;124949;1298;97495;-74
2022/10/30 21:45:21;;;;;;;76.00;44.80;;;;;;;10.59;81.63;100491.74;124954;1305;97436;-75
2022/10/30 21:48:27;;;;;;;75.50;43.40;;;;;;;10.57;81.42;100493.95;124939;1297;97848;-75
2022/10/30 21:51:33;;;;;;;72.70;45.10;;;;;;;10.54;81.77;100492.11;124950;1299;96740;-75
2022/10/30 21:54:39;;;;;;;77.50;50.10;;;;;;;10.51;81.75;100491.52;124853;1299;97835;-77
2022/10/30 21:57:45;;;;;;;80.60;48.60;;;;;;;10.48;81.72;100489.86;124967;1297;97827;-76
2022/10/30 22:00:50;;;;;;;72.50;42.80;;;;;;;10.44;81.74;100492.20;124925;1305;96659;-76
2022/10/30 22:03:58;;;;;;;73.20;41.20;;;;;;;10.42;81.95;100493.42;125116;1297;97467;-76
2022/10/30 22:07:03;;;;;;;74.10;44.60;;;;;;;10.42;81.57;100494.13;125266;1296;97442;-76
2022/10/30 22:10:10;;;;;;;75.90;46.60;;;;;;;10.44;81.59;100494.84;125019;1297;96771;-76
2022/10/30 22:13:15;;;;;;;75.00;45.70;;;;;;;10.46;81.73;100497.20;124859;1306;97813;-76
2022/10/30 22:16:20;;;;;;;71.50;45.60;;;;;;;10.46;81.59;100497.54;124861;1305;96704;-76
2022/10/30 22:19:26;;;;;;;72.40;44.30;;;;;;;10.45;81.80;100495.69;124941;1296;97650;-76
2022/10/30 22:22:31;;;;;;;76.60;47.90;;;;;;;10.44;81.75;100496.61;124934;1297;97346;-76
2022/10/30 22:25:37;;;;;;;74.30;46.20;;;;;;;10.45;81.93;100495.85;124977;1296;96679;-76
2022/10/30 22:28:43;;;;;;;74.30;42.60;;;;;;;10.45;81.94;100498.52;124924;1297;97827;-75
2022/10/30 22:31:49;;;;;;;57.80;33.00;;;;;;;10.41;81.60;100495.80;124873;1306;96683;-75
2022/10/30 22:34:55;;;;;;;77.20;44.90;;;;;;;10.40;82.14;100492.55;124918;1306;96756;-76
2022/10/30 22:38:00;;;;;;;73.40;44.10;;;;;;;10.39;81.70;100493.48;124909;1299;96697;-76
2022/10/30 22:41:11;;;;;;;70.30;42.70;;;;;;;10.39;81.60;100493.36;125019;1291;97336;-76
2022/10/30 22:44:17;;;;;;;72.70;43.70;;;;;;;10.36;81.85;100495.40;125050;1306;97692;-76
2022/10/30 22:47:22;;;;;;;65.10;39.30;;;;;;;10.35;81.95;100489.42;124925;1313;97252;-75
2022/10/30 22:50:28;;;;;;;58.40;36.40;;;;;;;10.31;81.73;100487.55;124922;1304;97714;-75
2022/10/30 22:53:34;;;;;;;64.70;40.90;;;;;;;10.25;81.84;100489.48;125107;1289;97778;-75
2022/10/30 22:56:41;;;;;;;55.90;34.20;;;;;;;10.18;81.70;100487.16;125055;1300;97813;-75
2022/10/30 22:59:46;;;;;;;52.00;31.20;;;;;;;10.14;81.83;100489.63;125078;1299;96751;-74
2022/10/30 23:02:52;;;;;;;54.10;34.50;;;;;;;10.13;81.84;100493.84;124986;1297;96718;-75
2022/10/30 23:05:57;;;;;;;55.00;34.00;;;;;;;10.14;81.79;100494.96;125073;1299;97817;-75
2022/10/30 23:09:04;;;;;;;51.20;34.20;;;;;;;10.14;81.55;100499.40;124930;1296;96647;-76
2022/10/30 23:12:10;;;;;;;52.40;33.50;;;;;;;10.13;81.80;100498.78;125003;1297;97109;-76
2022/10/30 23:15:15;;;;;;;48.70;32.30;;;;;;;10.10;81.23;100494.59;124859;1296;97790;-75
2022/10/30 23:18:21;;;;;;;48.80;32.40;;;;;;;10.07;81.50;100492.94;125213;1296;96714;-75
2022/10/30 23:21:29;;;;;;;45.90;31.50;;;;;;;10.06;81.57;100495.91;125131;1296;97756;-76
2022/10/30 23:24:34;;;;;;;44.20;29.80;;;;;;;10.04;81.63;100495.67;125028;1297;96680;-75
2022/10/30 23:27:39;;;;;;;42.40;27.40;;;;;;;10.02;81.73;100499.95;124994;1297;97354;-75
2022/10/30 23:30:45;;;;;;;36.60;23.80;;;;;;;9.99;81.78;100503.48;125009;1295;97432;-74
2022/10/30 23:33:52;;;;;;;39.40;26.70;;;;;;;9.97;81.66;100502.80;125020;1306;96763;-75
2022/10/30 23:36:57;;;;;;;38.20;27.40;;;;;;;9.95;81.42;100503.73;125091;1299;96771;-76
2022/10/30 23:40:03;;;;;;;42.80;28.40;;;;;;;9.95;81.52;100501.91;124871;1296;96746;-75
2022/10/30 23:43:08;;;;;;;42.60;27.80;;;;;;;9.94;81.39;100502.88;124968;1302;96662;-75
2022/10/30 23:46:14;;;;;;;39.00;27.30;;;;;;;9.92;81.63;100502.55;124948;1297;96999;-75
2022/10/30 23:49:19;;;;;;;38.40;27.50;;;;;;;9.90;81.78;100500.40;124934;1292;96918;-74
2022/10/30 23:52:24;;;;;;;40.50;27.40;;;;;;;9.85;81.53;100497.66;124878;1296;96804;-75
2022/10/30 23:55:30;;;;;;;34.70;22.30;;;;;;;9.79;81.28;100497.87;124892;1296;96643;-75
2022/10/30 23:58:35;;;;;;;32.60;21.00;;;;;;;9.74;81.71;100502.95;124950;1305;97501;-74
